Clearfield, Iowa
Current Conditions -  °F | °C
As of 3:35 PM on Monday 24 Nov 2014 (Local Time) from KCSQ Reporting Station
Overcast Overcast  
Wind Chill: -9°   Ceiling: 2500
Heat Index: -2°   Visibility: 10mi
Dew Point: -7°   Wind: 17mph
Humidity: 69%   Direction: 290°WNW
Pressure: 29.79"   Gusts: 26mph
Location:  40.8°N, 94.48°W
Report Text: KCSQ 242135Z AUTO 29015G23KT 10SM OVC025 M02/M07 A2979 RMK AO2
Loading
Personal Weather Stations






























Interactive Weather Map New forecast layout! Learn more

10-Day Weather Forecast

Advertisements
Track Severe Weather on mobile